Time;durP1;ratioP1;P1;durP2;ratioP2;P2;SDS_P1;SDS_P2;PMS_P1;PMS_P2;Temp;Humidity;BMP_temperature;BMP_pressure;BME280_temperature;BME280_humidity;BME280_pressure;Samples;Min_cycle;Max_cycle;Signal;HPM_P1;HPM_P2
2022/11/17 00:00:18;;;;;;;2.65;1.13;;;;;;;;;;4918756;29;20489;-66
2022/11/17 00:02:45;;;;;;;2.10;1.10;;;;;;;;;;4917331;29;20099;-66
2022/11/17 00:05:12;;;;;;;3.72;1.25;;;;;;;;;;4918672;29;20446;-65
2022/11/17 00:07:38;;;;;;;2.97;1.40;;;;;;;;;;4918235;29;20056;-66
2022/11/17 00:10:05;;;;;;;2.38;1.40;;;;;;;;;;4918644;29;20047;-65
2022/11/17 00:15:16;;;;;;;3.95;1.33;;;;;;;;;;4918432;29;20394;-65
2022/11/17 00:17:45;;;;;;;2.28;1.27;;;;;;;;;;4932468;29;20099;-66
2022/11/17 00:22:56;;;;;;;2.75;1.30;;;;;;;;;;4932795;29;20059;-65
2022/11/17 00:25:23;;;;;;;4.47;1.23;;;;;;;;;;4932771;29;20052;-65
2022/11/17 00:27:49;;;;;;;1.98;1.27;;;;;;;;;;4917889;29;20083;-65
2022/11/17 00:35:56;;;;;;;2.63;1.20;;;;;;;;;;4917400;29;20498;-65
2022/11/17 00:38:22;;;;;;;2.72;0.90;;;;;;;;;;4917528;29;20036;-65
2022/11/17 00:40:49;;;;;;;2.33;0.98;;;;;;;;;;4932487;29;20048;-65
2022/11/17 00:43:15;;;;;;;4.03;1.42;;;;;;;;;;4917966;29;20535;-65
2022/11/17 00:45:42;;;;;;;5.38;1.75;;;;;;;;;;4917997;29;20552;-65
2022/11/17 00:48:08;;;;;;;2.08;1.25;;;;;;;;;;4917543;29;20065;-65
2022/11/17 00:50:34;;;;;;;2.47;1.15;;;;;;;;;;4917831;29;20051;-65
2022/11/17 00:53:01;;;;;;;2.40;1.02;;;;;;;;;;4917687;29;20071;-65
2022/11/17 00:55:27;;;;;;;2.88;1.10;;;;;;;;;;4917920;29;20044;-65
2022/11/17 00:57:54;;;;;;;2.80;1.20;;;;;;;;;;4917843;29;20059;-65
2022/11/17 01:00:20;;;;;;;3.90;1.00;;;;;;;;;;4916450;29;20059;-65
2022/11/17 01:02:46;;;;;;;2.45;1.10;;;;;;;;;;4917578;29;20568;-65
2022/11/17 01:05:13;;;;;;;1.65;1.23;;;;;;;;;;4917630;29;20048;-65
2022/11/17 01:07:39;;;;;;;2.28;1.48;;;;;;;;;;4917330;29;20581;-65
2022/11/17 01:10:06;;;;;;;1.75;1.10;;;;;;;;;;4916229;29;20056;-65
2022/11/17 01:12:32;;;;;;;1.15;0.95;;;;;;;;;;4917473;29;20493;-65
2022/11/17 01:14:59;;;;;;;3.67;1.42;;;;;;;;;;4917733;29;20044;-64
2022/11/17 01:17:25;;;;;;;1.65;1.10;;;;;;;;;;4917160;29;20056;-64
2022/11/17 01:19:51;;;;;;;2.22;0.98;;;;;;;;;;4932344;29;20055;-65
2022/11/17 01:22:18;;;;;;;4.13;1.20;;;;;;;;;;4917721;29;20048;-64
2022/11/17 01:24:44;;;;;;;3.35;1.30;;;;;;;;;;4932259;29;20585;-65
2022/11/17 01:27:11;;;;;;;2.10;0.80;;;;;;;;;;4917833;29;20044;-64
2022/11/17 01:29:37;;;;;;;1.88;1.30;;;;;;;;;;4916828;29;20544;-65
2022/11/17 01:32:03;;;;;;;3.22;1.20;;;;;;;;;;4917469;29;20457;-64
2022/11/17 01:34:30;;;;;;;2.05;1.55;;;;;;;;;;4917403;29;20044;-64
2022/11/17 01:39:41;;;;;;;3.47;2.03;;;;;;;;;;4917538;29;20110;-65
2022/11/17 01:42:12;;;;;;;1.63;0.95;;;;;;;;;;4917300;29;20048;-65
2022/11/17 01:44:58;;;;;;;4.40;1.33;;;;;;;;;;4917528;29;20096;-64
2022/11/17 01:47:24;;;;;;;4.68;1.05;;;;;;;;;;4916850;29;20501;-64
2022/11/17 01:49:54;;;;;;;1.95;1.35;;;;;;;;;;4917295;29;20399;-64
2022/11/17 01:52:21;;;;;;;2.60;1.00;;;;;;;;;;4917311;29;20447;-64
2022/11/17 01:54:48;;;;;;;1.02;0.88;;;;;;;;;;4917163;29;20056;-64
2022/11/17 01:57:18;;;;;;;1.40;0.80;;;;;;;;;;4931788;29;20413;-64
2022/11/17 01:59:46;;;;;;;2.65;0.88;;;;;;;;;;4917372;29;20458;-64
2022/11/17 02:02:13;;;;;;;2.10;0.75;;;;;;;;;;4917129;29;20341;-64
2022/11/17 02:05:02;;;;;;;2.13;1.83;;;;;;;;;;4931476;29;20051;-64
2022/11/17 02:07:31;;;;;;;2.58;0.90;;;;;;;;;;4910171;29;20410;-64
2022/11/17 02:09:58;;;;;;;1.83;1.00;;;;;;;;;;4916649;29;20052;-64
2022/11/17 02:12:26;;;;;;;1.80;1.15;;;;;;;;;;4916548;29;20048;-64
2022/11/17 02:14:52;;;;;;;2.05;0.90;;;;;;;;;;4916556;29;20044;-64
2022/11/17 02:17:20;;;;;;;1.40;0.93;;;;;;;;;;4916191;29;20072;-64
2022/11/17 02:19:53;;;;;;;2.35;1.00;;;;;;;;;;4916545;29;20041;-64
2022/11/17 02:22:19;;;;;;;0.60;0.60;;;;;;;;;;4916634;29;20048;-64
2022/11/17 02:25:04;;;;;;;1.90;1.15;;;;;;;;;;4916760;29;20047;-64
2022/11/17 02:27:34;;;;;;;2.53;1.10;;;;;;;;;;4916234;29;20497;-64
2022/11/17 02:30:04;;;;;;;2.17;1.00;;;;;;;;;;4916359;29;20056;-64
2022/11/17 02:32:37;;;;;;;3.17;1.23;;;;;;;;;;4916706;29;20485;-64
2022/11/17 02:35:18;;;;;;;1.38;0.70;;;;;;;;;;4930900;29;20413;-64
2022/11/17 02:37:48;;;;;;;3.35;1.20;;;;;;;;;;4930440;29;20097;-64
2022/11/17 02:40:22;;;;;;;2.30;1.00;;;;;;;;;;4916275;29;20549;-64
2022/11/17 02:45:39;;;;;;;2.42;1.17;;;;;;;;;;4916044;29;20340;-64
2022/11/17 02:48:18;;;;;;;2.22;0.95;;;;;;;;;;4929942;29;20494;-64
2022/11/17 02:50:45;;;;;;;1.73;1.02;;;;;;;;;;4915956;29;20123;-64
2022/11/17 02:53:13;;;;;;;1.80;1.20;;;;;;;;;;4930552;29;20044;-64
2022/11/17 02:55:39;;;;;;;2.00;0.70;;;;;;;;;;4915807;29;20091;-64
2022/11/17 02:58:10;;;;;;;1.33;1.23;;;;;;;;;;4914651;29;20099;-64
2022/11/17 03:00:39;;;;;;;2.83;0.93;;;;;;;;;;4930371;29;20048;-64
2022/11/17 03:03:21;;;;;;;3.13;1.00;;;;;;;;;;4915518;29;20052;-64
2022/11/17 03:06:06;;;;;;;1.77;1.05;;;;;;;;;;4930463;29;20052;-64
2022/11/17 03:08:56;;;;;;;2.08;0.90;;;;;;;;;;4914237;29;20386;-64
2022/11/17 03:11:27;;;;;;;2.15;1.02;;;;;;;;;;4915689;29;20088;-64
2022/11/17 03:14:12;;;;;;;2.85;0.90;;;;;;;;;;4915579;29;20112;-64
2022/11/17 03:16:57;;;;;;;2.28;1.10;;;;;;;;;;4915591;29;20052;-64
2022/11/17 03:19:30;;;;;;;3.53;2.13;;;;;;;;;;4915150;29;20047;-64
2022/11/17 03:22:10;;;;;;;25.40;15.13;;;;;;;;;;4915923;29;20044;-64
2022/11/17 03:25:02;;;;;;;1.88;1.33;;;;;;;;;;4916041;29;20044;-64
2022/11/17 03:27:34;;;;;;;1.77;1.30;;;;;;;;;;4914136;29;20075;-64
2022/11/17 03:30:04;;;;;;;2.13;1.10;;;;;;;;;;4929945;29;20453;-64
2022/11/17 03:32:34;;;;;;;2.17;0.80;;;;;;;;;;4915699;29;20048;-64
2022/11/17 03:35:09;;;;;;;2.13;1.15;;;;;;;;;;4915465;29;20044;-64
2022/11/17 03:37:37;;;;;;;2.20;1.10;;;;;;;;;;4914996;29;20047;-65
2022/11/17 03:40:07;;;;;;;3.30;1.10;;;;;;;;;;4930029;29;20051;-64
2022/11/17 03:42:35;;;;;;;1.73;1.25;;;;;;;;;;4915489;29;20044;-64
2022/11/17 03:45:11;;;;;;;2.40;1.38;;;;;;;;;;4915499;29;20044;-64
2022/11/17 03:47:37;;;;;;;1.85;1.13;;;;;;;;;;4914867;29;20457;-63
2022/11/17 03:50:17;;;;;;;2.10;1.00;;;;;;;;;;4915523;29;20044;-64
2022/11/17 03:52:43;;;;;;;1.58;0.90;;;;;;;;;;4914171;29;20112;-64
2022/11/17 03:55:10;;;;;;;2.70;1.15;;;;;;;;;;4915411;29;20103;-64
2022/11/17 03:57:40;;;;;;;1.98;1.35;;;;;;;;;;4915051;29;20056;-64
2022/11/17 04:00:07;;;;;;;2.60;1.55;;;;;;;;;;4915578;29;20044;-64
2022/11/17 04:02:40;;;;;;;3.05;1.58;;;;;;;;;;4914161;29;20473;-64
2022/11/17 04:05:07;;;;;;;1.80;1.20;;;;;;;;;;4915562;29;20048;-64
2022/11/17 04:07:35;;;;;;;2.47;1.30;;;;;;;;;;4914776;29;20052;-64
2022/11/17 04:10:03;;;;;;;2.72;1.52;;;;;;;;;;4915979;29;20052;-64
2022/11/17 04:17:59;;;;;;;1.13;1.00;;;;;;;;;;4918151;29;20466;-64
2022/11/17 04:20:26;;;;;;;1.75;1.10;;;;;;;;;;4918541;29;20044;-64
2022/11/17 04:23:07;;;;;;;4.47;1.35;;;;;;;;;;4917138;29;20040;-64
2022/11/17 04:28:35;;;;;;;2.28;1.08;;;;;;;;;;4917785;29;20055;-65
2022/11/17 04:31:09;;;;;;;3.25;1.38;;;;;;;;;;4918446;29;20076;-64
2022/11/17 04:33:36;;;;;;;4.20;1.35;;;;;;;;;;4932818;29;20067;-64
2022/11/17 04:36:04;;;;;;;2.38;1.10;;;;;;;;;;4918616;29;20044;-65
2022/11/17 04:38:30;;;;;;;2.15;1.38;;;;;;;;;;4917563;29;20111;-66
2022/11/17 04:43:46;;;;;;;3.92;1.95;;;;;;;;;;4918201;29;20048;-65
2022/11/17 04:46:13;;;;;;;3.75;1.17;;;;;;;;;;4917899;29;20051;-63
2022/11/17 04:48:39;;;;;;;1.65;1.20;;;;;;;;;;4931807;29;20057;-64
2022/11/17 04:51:06;;;;;;;2.95;1.08;;;;;;;;;;4917908;29;20044;-64
2022/11/17 04:53:32;;;;;;;3.22;1.30;;;;;;;;;;4917782;29;20103;-64
2022/11/17 04:56:02;;;;;;;3.40;1.38;;;;;;;;;;4932302;29;20044;-64
2022/11/17 04:58:29;;;;;;;4.28;1.88;;;;;;;;;;4917280;29;20048;-64
2022/11/17 05:03:34;;;;;;;3.65;1.17;;;;;;;;;;4895956;29;20056;-63
2022/11/17 05:06:01;;;;;;;7.05;1.63;;;;;;;;;;4913322;29;20083;-63
2022/11/17 05:08:28;;;;;;;2.08;1.08;;;;;;;;;;4912952;29;20081;-63
2022/11/17 05:13:41;;;;;;;3.90;1.40;;;;;;;;;;4913328;29;20100;-63
2022/11/17 05:18:52;;;;;;;3.08;1.40;;;;;;;;;;4898391;29;20044;-64
2022/11/17 05:21:19;;;;;;;5.38;1.42;;;;;;;;;;4898263;29;20045;-63
2022/11/17 05:23:54;;;;;;;4.78;1.40;;;;;;;;;;4898631;29;20101;-63
2022/11/17 05:26:22;;;;;;;6.82;1.33;;;;;;;;;;4899003;29;20175;-63
2022/11/17 05:28:48;;;;;;;2.60;1.10;;;;;;;;;;4897692;29;20481;-64
2022/11/17 05:31:15;;;;;;;2.17;1.00;;;;;;;;;;4898073;29;20104;-64
2022/11/17 05:33:41;;;;;;;6.40;1.30;;;;;;;;;;4896844;29;20552;-64
2022/11/17 05:36:09;;;;;;;1.88;1.08;;;;;;;;;;4898180;29;20056;-64
2022/11/17 05:38:35;;;;;;;2.15;1.30;;;;;;;;;;4897701;29;20092;-64
2022/11/17 05:41:02;;;;;;;2.03;1.20;;;;;;;;;;4898148;29;20041;-64
2022/11/17 05:43:28;;;;;;;2.58;1.15;;;;;;;;;;4898127;29;20041;-66
2022/11/17 05:45:54;;;;;;;1.75;1.10;;;;;;;;;;4912344;29;20056;-64
2022/11/17 05:48:21;;;;;;;2.15;1.23;;;;;;;;;;4896185;29;20458;-64
2022/11/17 05:50:50;;;;;;;2.33;1.25;;;;;;;;;;4897922;29;20413;-64
2022/11/17 05:53:16;;;;;;;1.60;1.30;;;;;;;;;;4897777;29;20044;-64
2022/11/17 05:55:43;;;;;;;3.03;1.13;;;;;;;;;;4897739;29;20275;-64
2022/11/17 05:58:18;;;;;;;3.72;1.20;;;;;;;;;;4897441;29;20044;-64
2022/11/17 06:00:45;;;;;;;3.67;1.30;;;;;;;;;;4898117;29;20048;-64
2022/11/17 06:03:14;;;;;;;2.72;1.15;;;;;;;;;;4897609;29;20041;-64
2022/11/17 06:05:41;;;;;;;4.32;1.42;;;;;;;;;;4897714;29;20170;-64
2022/11/17 06:08:08;;;;;;;4.25;1.48;;;;;;;;;;4911669;29;20045;-64
2022/11/17 06:10:34;;;;;;;4.80;1.40;;;;;;;;;;4896444;29;20044;-64
2022/11/17 06:13:00;;;;;;;2.53;1.00;;;;;;;;;;4897811;29;20045;-64
2022/11/17 06:15:27;;;;;;;2.80;1.00;;;;;;;;;;4912372;29;20116;-64
2022/11/17 06:17:57;;;;;;;1.98;1.38;;;;;;;;;;4896252;29;20108;-64
2022/11/17 06:20:26;;;;;;;2.78;1.20;;;;;;;;;;4897871;29;20123;-64
2022/11/17 06:22:55;;;;;;;2.92;1.30;;;;;;;;;;4897805;29;20052;-64
2022/11/17 06:25:22;;;;;;;3.40;1.67;;;;;;;;;;4912341;29;20060;-64
2022/11/17 06:27:49;;;;;;;4.72;1.35;;;;;;;;;;4911762;29;20514;-64
2022/11/17 06:30:16;;;;;;;2.20;0.98;;;;;;;;;;4897331;29;20052;-64
2022/11/17 06:32:43;;;;;;;4.60;1.40;;;;;;;;;;4896618;29;20045;-64
2022/11/17 06:35:11;;;;;;;2.38;1.20;;;;;;;;;;4897165;29;20041;-64
2022/11/17 06:37:37;;;;;;;5.85;1.27;;;;;;;;;;4896848;29;20052;-64
2022/11/17 06:40:04;;;;;;;3.60;1.40;;;;;;;;;;4897195;29;20063;-66
2022/11/17 06:45:16;;;;;;;5.60;1.33;;;;;;;;;;4911737;29;20060;-64
2022/11/17 06:47:42;;;;;;;6.55;1.77;;;;;;;;;;4896709;29;20051;-65
2022/11/17 06:50:09;;;;;;;5.65;1.58;;;;;;;;;;4911514;29;20434;-65
2022/11/17 06:52:36;;;;;;;6.45;1.52;;;;;;;;;;4895764;29;20533;-64
2022/11/17 06:55:02;;;;;;;7.90;1.75;;;;;;;;;;4897094;29;20040;-65
2022/11/17 06:57:29;;;;;;;4.78;1.20;;;;;;;;;;4896830;29;20052;-64
2022/11/17 06:59:55;;;;;;;8.38;2.20;;;;;;;;;;4897090;29;20047;-65
2022/11/17 07:02:22;;;;;;;7.35;1.58;;;;;;;;;;4897040;29;20052;-65
2022/11/17 07:04:48;;;;;;;6.10;2.15;;;;;;;;;;4897004;29;20051;-65
2022/11/17 07:07:15;;;;;;;6.20;1.52;;;;;;;;;;4911583;29;20045;-64
2022/11/17 07:09:41;;;;;;;6.60;2.00;;;;;;;;;;4896658;29;20513;-65
2022/11/17 07:12:08;;;;;;;11.32;2.47;;;;;;;;;;4911374;29;20401;-65
2022/11/17 07:14:34;;;;;;;11.40;1.90;;;;;;;;;;4895530;29;20048;-65
2022/11/17 07:17:01;;;;;;;6.97;1.65;;;;;;;;;;4897174;29;20041;-65
2022/11/17 07:19:27;;;;;;;7.68;1.85;;;;;;;;;;4896662;29;20101;-65
2022/11/17 07:21:54;;;;;;;5.40;1.90;;;;;;;;;;4896928;29;20036;-65
2022/11/17 07:24:20;;;;;;;6.43;1.50;;;;;;;;;;4896856;29;20056;-65
2022/11/17 07:26:46;;;;;;;5.65;1.52;;;;;;;;;;4897051;29;20446;-65
2022/11/17 07:29:13;;;;;;;3.78;1.13;;;;;;;;;;4896219;29;20108;-65
2022/11/17 07:31:39;;;;;;;6.68;1.35;;;;;;;;;;4895708;29;20044;-65
2022/11/17 07:34:06;;;;;;;9.00;3.55;;;;;;;;;;4896811;29;20045;-65
2022/11/17 07:36:32;;;;;;;3.85;1.75;;;;;;;;;;4911444;29;20051;-64
2022/11/17 07:38:59;;;;;;;6.03;3.28;;;;;;;;;;4910893;29;20084;-64
2022/11/17 07:41:25;;;;;;;5.40;1.33;;;;;;;;;;4895966;29;20043;-64
2022/11/17 07:43:52;;;;;;;5.07;1.55;;;;;;;;;;4897702;29;20096;-64
2022/11/17 07:46:18;;;;;;;7.38;2.17;;;;;;;;;;4914760;29;20048;-64
2022/11/17 07:48:45;;;;;;;8.95;1.85;;;;;;;;;;4899817;29;20048;-64
2022/11/17 07:51:12;;;;;;;5.78;1.63;;;;;;;;;;4900686;29;20485;-64
2022/11/17 07:53:39;;;;;;;6.35;2.10;;;;;;;;;;4900398;29;20048;-64
2022/11/17 07:56:07;;;;;;;9.00;3.05;;;;;;;;;;4914704;29;20052;-65
2022/11/17 07:58:33;;;;;;;5.78;1.90;;;;;;;;;;4913716;29;20056;-64
2022/11/17 08:01:04;;;;;;;8.10;1.85;;;;;;;;;;4900042;29;20045;-64
2022/11/17 08:03:31;;;;;;;6.50;1.75;;;;;;;;;;4898833;29;20128;-65
2022/11/17 08:06:01;;;;;;;6.30;1.45;;;;;;;;;;4900338;29;20047;-64
2022/11/17 08:08:28;;;;;;;6.57;1.60;;;;;;;;;;4914094;29;20096;-64
2022/11/17 08:10:54;;;;;;;5.53;1.80;;;;;;;;;;4914415;29;20494;-64
2022/11/17 08:13:21;;;;;;;7.07;1.65;;;;;;;;;;4899817;29;20060;-64
2022/11/17 08:15:47;;;;;;;5.45;1.98;;;;;;;;;;4899895;29;20119;-64
2022/11/17 08:18:14;;;;;;;5.95;1.85;;;;;;;;;;4898644;29;20049;-64
2022/11/17 08:20:40;;;;;;;5.00;1.70;;;;;;;;;;4899364;29;20051;-64
2022/11/17 08:23:07;;;;;;;11.10;2.28;;;;;;;;;;4899736;29;20489;-64
2022/11/17 08:25:33;;;;;;;4.22;1.60;;;;;;;;;;4898460;29;20092;-65
2022/11/17 08:28:00;;;;;;;4.15;1.70;;;;;;;;;;4914009;29;20060;-64
2022/11/17 08:30:27;;;;;;;10.00;2.22;;;;;;;;;;4899128;29;20105;-64
2022/11/17 08:32:53;;;;;;;8.05;2.00;;;;;;;;;;4899474;29;20060;-64
2022/11/17 08:35:21;;;;;;;8.93;2.00;;;;;;;;;;4898077;29;20398;-64
2022/11/17 08:37:48;;;;;;;7.57;2.05;;;;;;;;;;4913360;29;20056;-64
2022/11/17 08:40:16;;;;;;;7.20;2.08;;;;;;;;;;4899407;29;20497;-64
2022/11/17 08:42:43;;;;;;;10.27;2.47;;;;;;;;;;4899474;29;20043;-64
2022/11/17 08:45:10;;;;;;;8.68;1.65;;;;;;;;;;4899324;29;20048;-64
2022/11/17 08:47:36;;;;;;;9.10;2.00;;;;;;;;;;4899103;29;20060;-64
2022/11/17 08:50:04;;;;;;;9.02;2.38;;;;;;;;;;4899560;29;20128;-64
2022/11/17 08:52:31;;;;;;;12.52;2.35;;;;;;;;;;4913658;29;20048;-64
2022/11/17 08:54:57;;;;;;;16.60;3.20;;;;;;;;;;4913794;29;20056;-64
2022/11/17 08:57:24;;;;;;;9.40;2.15;;;;;;;;;;4897608;29;20040;-64
2022/11/17 08:59:50;;;;;;;10.63;2.30;;;;;;;;;;4898816;29;20056;-64
2022/11/17 09:02:16;;;;;;;10.73;2.22;;;;;;;;;;4898344;29;20036;-64
2022/11/17 09:04:44;;;;;;;12.60;2.63;;;;;;;;;;4912903;29;20096;-64
2022/11/17 09:07:11;;;;;;;7.53;2.10;;;;;;;;;;4898299;29;20060;-64
2022/11/17 09:09:37;;;;;;;5.82;1.60;;;;;;;;;;4898709;29;20045;-64
2022/11/17 09:12:04;;;;;;;8.27;2.60;;;;;;;;;;4898705;29;20055;-64
2022/11/17 09:14:31;;;;;;;9.77;2.05;;;;;;;;;;4898478;29;20048;-64
2022/11/17 09:16:57;;;;;;;9.85;2.42;;;;;;;;;;4898825;29;20045;-64
2022/11/17 09:19:24;;;;;;;7.90;2.25;;;;;;;;;;4912635;29;20091;-64
2022/11/17 09:21:50;;;;;;;8.07;1.75;;;;;;;;;;4898403;29;20051;-64
2022/11/17 09:24:17;;;;;;;11.40;2.38;;;;;;;;;;4898602;29;20040;-64
2022/11/17 09:26:43;;;;;;;5.28;1.60;;;;;;;;;;4899061;29;20056;-64
2022/11/17 09:29:10;;;;;;;7.30;1.85;;;;;;;;;;4912832;29;20048;-64
2022/11/17 09:31:37;;;;;;;9.57;1.88;;;;;;;;;;4897678;29;20072;-64
2022/11/17 09:34:04;;;;;;;7.20;1.80;;;;;;;;;;4898532;29;20040;-64
2022/11/17 09:36:31;;;;;;;5.65;1.30;;;;;;;;;;4898856;29;20115;-64
2022/11/17 09:38:58;;;;;;;5.45;1.85;;;;;;;;;;4898334;29;20104;-64
2022/11/17 09:41:33;;;;;;;8.88;2.10;;;;;;;;;;4898408;29;20044;-64
2022/11/17 09:44:08;;;;;;;5.68;1.77;;;;;;;;;;4898516;29;20470;-65
2022/11/17 09:46:35;;;;;;;8.30;2.03;;;;;;;;;;4897208;29;20056;-64
2022/11/17 09:49:06;;;;;;;6.03;1.50;;;;;;;;;;4897855;29;20056;-64
2022/11/17 09:51:33;;;;;;;9.25;2.42;;;;;;;;;;4898424;29;20055;-65
2022/11/17 09:54:10;;;;;;;7.78;2.10;;;;;;;;;;4898510;29;20100;-62
2022/11/17 09:56:37;;;;;;;9.15;2.25;;;;;;;;;;4898157;29;20048;-65
2022/11/17 09:59:04;;;;;;;9.65;2.38;;;;;;;;;;4897468;29;20047;-63
2022/11/17 10:01:31;;;;;;;9.52;2.03;;;;;;;;;;4897799;29;20463;-63
2022/11/17 10:04:00;;;;;;;7.63;1.80;;;;;;;;;;4898004;29;20032;-63
2022/11/17 10:06:28;;;;;;;7.10;2.40;;;;;;;;;;4912452;29;20429;-63
2022/11/17 10:09:03;;;;;;;9.23;1.90;;;;;;;;;;4897199;29;20049;-63
2022/11/17 10:11:31;;;;;;;6.60;2.00;;;;;;;;;;4897717;29;20510;-63
2022/11/17 10:14:03;;;;;;;9.68;1.92;;;;;;;;;;4897556;29;20048;-63
2022/11/17 10:16:29;;;;;;;10.55;2.50;;;;;;;;;;4897717;29;20040;-63
2022/11/17 10:18:56;;;;;;;8.77;2.38;;;;;;;;;;4896956;29;20427;-62
2022/11/17 10:21:22;;;;;;;7.15;2.00;;;;;;;;;;4897721;29;20059;-63
2022/11/17 10:23:57;;;;;;;4.22;1.30;;;;;;;;;;4897910;29;20047;-63
2022/11/17 10:26:23;;;;;;;;;;;;;;;;;;4898045;29;20056;-63
2022/11/17 10:29:04;;;;;;;3.63;1.55;;;;;;;;;;4896743;29;19956;-63
2022/11/17 10:31:44;;;;;;;9.02;1.90;;;;;;;;;;4896066;29;20063;-63
2022/11/17 10:34:15;;;;;;;8.38;2.38;;;;;;;;;;4897447;29;20048;-64
2022/11/17 10:36:46;;;;;;;5.22;1.65;;;;;;;;;;4895967;29;20044;-64
2022/11/17 10:39:30;;;;;;;11.23;2.08;;;;;;;;;;4896750;29;20406;-64
2022/11/17 10:41:56;;;;;;;6.68;1.83;;;;;;;;;;4897317;29;20045;-64
2022/11/17 10:44:31;;;;;;;7.10;1.85;;;;;;;;;;4911652;29;20100;-64
2022/11/17 10:46:58;;;;;;;6.60;1.50;;;;;;;;;;4897164;29;20049;-64
2022/11/17 10:49:31;;;;;;;5.03;1.58;;;;;;;;;;4895445;29;20112;-64
2022/11/17 10:52:04;;;;;;;3.90;1.30;;;;;;;;;;4897025;29;20045;-64
2022/11/17 10:54:30;;;;;;;5.07;1.40;;;;;;;;;;4896981;29;20557;-64
2022/11/17 10:56:58;;;;;;;5.82;1.75;;;;;;;;;;4911498;29;20083;-64
2022/11/17 10:59:25;;;;;;;6.00;2.05;;;;;;;;;;4910805;29;20489;-64
2022/11/17 11:01:51;;;;;;;3.78;1.30;;;;;;;;;;4896853;29;20052;-64
2022/11/17 11:04:33;;;;;;;4.63;1.40;;;;;;;;;;4897056;29;20093;-64
2022/11/17 11:07:05;;;;;;;5.28;1.58;;;;;;;;;;4896908;29;20489;-64
2022/11/17 11:09:34;;;;;;;5.32;1.73;;;;;;;;;;4896367;29;20132;-64
2022/11/17 11:12:02;;;;;;;6.47;2.03;;;;;;;;;;4897089;29;20131;-64
2022/11/17 11:14:39;;;;;;;8.27;2.00;;;;;;;;;;4897001;29;20051;-64
2022/11/17 11:17:13;;;;;;;7.32;1.98;;;;;;;;;;4896938;29;20049;-64
2022/11/17 11:19:40;;;;;;;9.50;2.65;;;;;;;;;;4898149;29;20051;-64
2022/11/17 11:22:26;;;;;;;9.50;2.40;;;;;;;;;;4899497;29;20459;-64
2022/11/17 11:25:08;;;;;;;9.85;2.50;;;;;;;;;;4900648;29;20052;-64
2022/11/17 11:27:53;;;;;;;12.77;2.58;;;;;;;;;;4900008;29;20104;-64
2022/11/17 11:30:19;;;;;;;13.02;2.55;;;;;;;;;;4899263;29;20117;-64
2022/11/17 11:32:52;;;;;;;7.80;2.00;;;;;;;;;;4900470;29;20108;-64
2022/11/17 11:35:37;;;;;;;12.43;2.47;;;;;;;;;;4914852;29;20048;-64
2022/11/17 11:38:12;;;;;;;8.15;1.77;;;;;;;;;;4899710;29;20041;-64
2022/11/17 11:40:40;;;;;;;11.05;2.10;;;;;;;;;;4900353;29;20096;-64
2022/11/17 11:43:32;;;;;;;13.50;3.17;;;;;;;;;;4900310;29;20041;-64
2022/11/17 11:46:09;;;;;;;12.52;2.72;;;;;;;;;;4901075;29;20083;-64
2022/11/17 11:48:38;;;;;;;13.70;3.50;;;;;;;;;;4899994;29;20521;-64
2022/11/17 11:51:16;;;;;;;11.88;2.55;;;;;;;;;;4914998;29;20052;-64
2022/11/17 11:53:47;;;;;;;8.10;2.40;;;;;;;;;;4900292;29;20049;-64
2022/11/17 11:56:26;;;;;;;14.00;3.45;;;;;;;;;;4898750;29;20045;-64
2022/11/17 11:58:57;;;;;;;6.95;2.35;;;;;;;;;;4899355;29;20052;-64
2022/11/17 12:01:25;;;;;;;9.43;2.72;;;;;;;;;;4900118;29;20048;-64
2022/11/17 12:04:07;;;;;;;8.90;2.97;;;;;;;;;;4900329;29;20052;-63
2022/11/17 12:06:40;;;;;;;8.75;2.28;;;;;;;;;;4900046;29;20048;-64
2022/11/17 12:09:18;;;;;;;13.68;3.00;;;;;;;;;;4899440;29;20059;-64
2022/11/17 12:11:59;;;;;;;7.93;2.20;;;;;;;;;;4899986;29;20097;-64
2022/11/17 12:14:34;;;;;;;11.43;2.53;;;;;;;;;;4899860;29;20045;-64
2022/11/17 12:17:02;;;;;;;9.55;2.20;;;;;;;;;;4914252;29;20048;-64
2022/11/17 12:19:54;;;;;;;14.50;2.95;;;;;;;;;;4899406;29;20454;-64
2022/11/17 12:22:32;;;;;;;8.10;2.88;;;;;;;;;;4899600;29;20053;-64
2022/11/17 12:25:02;;;;;;;7.65;2.30;;;;;;;;;;4899472;29;20549;-64
2022/11/17 12:27:34;;;;;;;10.25;2.80;;;;;;;;;;4899081;29;20052;-64
2022/11/17 12:30:02;;;;;;;11.95;2.88;;;;;;;;;;4899109;29;20048;-64
2022/11/17 12:32:47;;;;;;;12.30;2.97;;;;;;;;;;4913481;29;20070;-64
2022/11/17 12:35:23;;;;;;;10.63;2.60;;;;;;;;;;4900163;29;20061;-65
2022/11/17 12:38:07;;;;;;;12.25;2.67;;;;;;;;;;4898843;29;20052;-65
2022/11/17 12:40:37;;;;;;;8.05;2.17;;;;;;;;;;4899460;29;20248;-65
2022/11/17 12:43:21;;;;;;;11.52;3.00;;;;;;;;;;4913757;29;20041;-65
2022/11/17 12:45:50;;;;;;;8.55;1.80;;;;;;;;;;4913654;29;20104;-65
2022/11/17 12:48:18;;;;;;;10.10;2.88;;;;;;;;;;4898744;29;20056;-65
2022/11/17 12:51:04;;;;;;;6.25;2.15;;;;;;;;;;4899740;29;20561;-64
2022/11/17 12:53:51;;;;;;;8.82;2.10;;;;;;;;;;4897893;29;20080;-64
2022/11/17 12:56:26;;;;;;;7.78;2.20;;;;;;;;;;4913479;29;20115;-64
2022/11/17 12:59:02;;;;;;;6.13;2.20;;;;;;;;;;4898507;29;20049;-65
2022/11/17 13:01:46;;;;;;;7.22;2.33;;;;;;;;;;4899085;29;20048;-64
2022/11/17 13:04:12;;;;;;;;;;;;;;;;;;4899694;29;20097;-62
2022/11/17 13:06:56;;;;;;;4.65;1.65;;;;;;;;;;4898905;29;19923;-63
2022/11/17 13:09:25;;;;;;;5.57;1.73;;;;;;;;;;4897641;29;20079;-65
2022/11/17 13:11:58;;;;;;;5.45;2.00;;;;;;;;;;4899230;29;20049;-64
2022/11/17 13:14:24;;;;;;;2.55;1.23;;;;;;;;;;4898901;29;20513;-65
2022/11/17 13:16:51;;;;;;;2.95;1.55;;;;;;;;;;4898792;29;20136;-64
2022/11/17 13:19:30;;;;;;;5.05;2.10;;;;;;;;;;4898301;29;20446;-65
2022/11/17 13:21:58;;;;;;;4.70;1.48;;;;;;;;;;4898918;29;20103;-64
2022/11/17 13:24:32;;;;;;;4.95;1.60;;;;;;;;;;4898944;29;20402;-65
2022/11/17 13:26:58;;;;;;;;;;;;;;;;;;4898403;29;20080;-62
2022/11/17 13:29:25;;;;;;;5.63;1.50;;;;;;;;;;4898299;29;19923;-62
2022/11/17 13:32:10;;;;;;;3.90;1.20;;;;;;;;;;4898753;29;20127;-63
2022/11/17 13:34:43;;;;;;;3.75;1.65;;;;;;;;;;4897391;29;20075;-63
2022/11/17 13:37:13;;;;;;;3.72;1.55;;;;;;;;;;4898544;29;20040;-63
2022/11/17 13:39:52;;;;;;;4.15;1.75;;;;;;;;;;4897820;29;20049;-63
2022/11/17 13:42:22;;;;;;;3.13;1.58;;;;;;;;;;4912558;29;20048;-63
2022/11/17 13:44:53;;;;;;;10.57;4.00;;;;;;;;;;4898426;29;20040;-65
2022/11/17 13:47:40;;;;;;;14.10;2.55;;;;;;;;;;4912580;29;20107;-65
2022/11/17 13:50:28;;;;;;;5.97;1.60;;;;;;;;;;4912528;29;20424;-64
2022/11/17 13:52:55;;;;;;;6.03;1.83;;;;;;;;;;4913711;29;20056;-65
2022/11/17 13:55:29;;;;;;;7.93;2.63;;;;;;;;;;4913876;29;20052;-64
2022/11/17 13:58:17;;;;;;;8.55;2.05;;;;;;;;;;4896965;29;20040;-65
2022/11/17 14:00:55;;;;;;;5.38;1.85;;;;;;;;;;4896968;29;20048;-63
2022/11/17 14:03:42;;;;;;;4.38;2.08;;;;;;;;;;4882363;29;20045;-64
2022/11/17 14:06:17;;;;;;;4.28;2.00;;;;;;;;;;4897786;29;20060;-65
2022/11/17 14:09:03;;;;;;;4.53;1.90;;;;;;;;;;4895919;29;20073;-65
2022/11/17 14:11:29;;;;;;;3.47;2.47;;;;;;;;;;4897918;29;20474;-64
2022/11/17 14:13:57;;;;;;;9.00;6.78;;;;;;;;;;4897715;29;20053;-64
2022/11/17 14:16:30;;;;;;;6.20;4.03;;;;;;;;;;4897540;29;20406;-64
2022/11/17 14:18:57;;;;;;;2.65;1.88;;;;;;;;;;4895795;29;20040;-63
2022/11/17 14:21:24;;;;;;;7.03;2.50;;;;;;;;;;4912241;29;20052;-64
2022/11/17 14:24:00;;;;;;;2.70;1.48;;;;;;;;;;4897732;29;20466;-64
2022/11/17 14:26:26;;;;;;;6.75;1.55;;;;;;;;;;4897663;29;20412;-64
2022/11/17 14:28:54;;;;;;;5.38;2.72;;;;;;;;;;4896935;29;20087;-64
2022/11/17 14:31:20;;;;;;;7.13;2.80;;;;;;;;;;4897270;29;20089;-64
2022/11/17 14:33:46;;;;;;;3.63;1.60;;;;;;;;;;4897363;29;20049;-64
2022/11/17 14:36:16;;;;;;;4.82;1.92;;;;;;;;;;4897125;29;20051;-64
2022/11/17 14:38:43;;;;;;;5.20;1.75;;;;;;;;;;4896761;29;20040;-64
2022/11/17 14:41:10;;;;;;;5.65;1.70;;;;;;;;;;4911639;29;20100;-64
2022/11/17 14:43:36;;;;;;;7.28;2.63;;;;;;;;;;4897368;29;20044;-64
2022/11/17 14:46:03;;;;;;;3.45;1.27;;;;;;;;;;4911738;29;20096;-64
2022/11/17 14:48:29;;;;;;;3.20;1.30;;;;;;;;;;4910916;29;20049;-66
2022/11/17 14:50:56;;;;;;;4.10;2.03;;;;;;;;;;4897146;29;20354;-65
2022/11/17 14:53:23;;;;;;;3.30;1.52;;;;;;;;;;4895214;29;20052;-65
2022/11/17 14:55:50;;;;;;;4.85;1.00;;;;;;;;;;4897013;29;20043;-65
2022/11/17 14:58:17;;;;;;;5.97;1.30;;;;;;;;;;4896441;29;19923;-65
2022/11/17 15:00:43;;;;;;;5.10;1.30;;;;;;;;;;4895708;29;20442;-65
2022/11/17 15:03:10;;;;;;;5.28;1.80;;;;;;;;;;4896783;29;20032;-64
2022/11/17 15:05:41;;;;;;;3.90;1.88;;;;;;;;;;4895789;29;20100;-64
2022/11/17 15:08:09;;;;;;;3.85;1.35;;;;;;;;;;4896201;29;20049;-65
2022/11/17 15:10:35;;;;;;;2.33;1.10;;;;;;;;;;4896850;29;20048;-65
2022/11/17 15:13:01;;;;;;;5.97;1.50;;;;;;;;;;4911250;29;20155;-65
2022/11/17 15:15:28;;;;;;;2.17;1.10;;;;;;;;;;4896636;29;20045;-65
2022/11/17 15:17:54;;;;;;;1.92;1.20;;;;;;;;;;4910318;29;20470;-64
2022/11/17 15:20:21;;;;;;;2.17;1.10;;;;;;;;;;4911295;29;20426;-65
2022/11/17 15:22:48;;;;;;;5.68;1.20;;;;;;;;;;4896959;29;20081;-63
2022/11/17 15:25:14;;;;;;;2.90;1.10;;;;;;;;;;4896593;29;20105;-63
2022/11/17 15:27:41;;;;;;;3.90;1.85;;;;;;;;;;4894941;29;20053;-64
2022/11/17 15:30:07;;;;;;;4.15;1.73;;;;;;;;;;4896746;29;20104;-64
2022/11/17 15:32:35;;;;;;;4.38;2.13;;;;;;;;;;4911111;29;20091;-64
2022/11/17 15:35:01;;;;;;;5.70;2.00;;;;;;;;;;4896665;29;20088;-64
2022/11/17 15:37:27;;;;;;;2.50;1.52;;;;;;;;;;4896179;29;20454;-65